createdAt,value
2024-02-13T00:00:11.898Z,97556.63
2024-02-13T00:02:41.045Z,97565.47
2024-02-13T00:05:09.686Z,97564.50
2024-02-13T00:07:39.994Z,97564.69
2024-02-13T00:10:11.305Z,97568.88
2024-02-13T00:12:40.811Z,97575.28
2024-02-13T00:15:10.492Z,97579.09
2024-02-13T00:17:37.311Z,97577.78
2024-02-13T00:20:09.966Z,97575.00
2024-02-13T00:22:37.311Z,97577.38
2024-02-13T00:25:04.709Z,97576.41
2024-02-13T00:27:34.588Z,97584.47
2024-02-13T00:30:05.027Z,97591.09
2024-02-13T00:32:33.380Z,97595.66
2024-02-13T00:35:00.516Z,97592.91
2024-02-13T00:37:27.313Z,97604.91
2024-02-13T00:39:55.562Z,97605.81
2024-02-13T00:42:22.615Z,97602.41
2024-02-13T00:44:51.024Z,97608.84
2024-02-13T00:47:19.688Z,97615.81
2024-02-13T00:49:46.913Z,97610.31
2024-02-13T00:52:13.768Z,97606.06
2024-02-13T00:54:40.402Z,97623.03
2024-02-13T00:57:07.351Z,97618.31
2024-02-13T00:59:34.291Z,97625.44
2024-02-13T01:03:36.346Z,97632.09
2024-02-13T01:06:04.757Z,97634.31
2024-02-13T01:08:31.909Z,97637.09
2024-02-13T01:10:58.609Z,97640.44
2024-02-13T01:13:25.320Z,97638.28
2024-02-13T01:15:52.002Z,97641.25
2024-02-13T01:18:19.514Z,97639.94
2024-02-13T01:20:46.490Z,97637.81
2024-02-13T01:23:13.546Z,97638.88
2024-02-13T01:25:40.392Z,97643.78
2024-02-13T01:28:08.989Z,97642.25
2024-02-13T01:30:36.450Z,97649.44
2024-02-13T01:33:03.281Z,97652.94
2024-02-13T01:35:30.187Z,97647.63
2024-02-13T01:37:57.739Z,97651.94
2024-02-13T01:40:24.907Z,97660.72
2024-02-13T01:42:51.487Z,97656.56
2024-02-13T01:45:18.813Z,97662.34
2024-02-13T01:47:46.054Z,97670.78
2024-02-13T01:50:19.210Z,97677.13
2024-02-13T01:52:47.265Z,97676.56
2024-02-13T01:55:16.127Z,97669.97
2024-02-13T01:57:43.310Z,97678.94
2024-02-13T02:00:14.901Z,97688.88
2024-02-13T02:02:48.520Z,97687.84
2024-02-13T02:05:15.608Z,97696.06
2024-02-13T02:07:43.342Z,97694.13
2024-02-13T02:10:10.730Z,97706.84
2024-02-13T02:12:38.412Z,97705.09
2024-02-13T02:15:05.904Z,97714.66
2024-02-13T02:17:34.733Z,97705.72
2024-02-13T02:20:01.968Z,97709.81
2024-02-13T02:22:28.712Z,97713.97
2024-02-13T02:24:56.094Z,97719.66
2024-02-13T02:27:23.349Z,97712.66
2024-02-13T02:29:50.160Z,97721.53
2024-02-13T02:32:17.251Z,97726.34
2024-02-13T02:34:43.999Z,97725.59
2024-02-13T02:37:10.765Z,97733.25
2024-02-13T02:39:38.248Z,97733.13
2024-02-13T02:42:05.253Z,97729.88
2024-02-13T02:44:32.081Z,97730.97
2024-02-13T02:47:01.286Z,97746.78
2024-02-13T02:49:28.068Z,97747.56
2024-02-13T02:51:54.674Z,97749.22
2024-02-13T02:54:21.344Z,97767.47
2024-02-13T02:56:48.104Z,97767.94
2024-02-13T02:59:15.769Z,97772.84
2024-02-13T03:01:42.525Z,97770.56
2024-02-13T03:04:11.685Z,97787.53
2024-02-13T03:06:41.996Z,97782.84
2024-02-13T03:09:09.403Z,97791.25
2024-02-13T03:11:37.130Z,97784.28
2024-02-13T03:14:05.263Z,97782.97
2024-02-13T03:16:36.069Z,97798.81
2024-02-13T03:19:09.361Z,97798.94
2024-02-13T03:21:39.140Z,97804.47
2024-02-13T03:24:06.649Z,97817.19
2024-02-13T03:26:33.548Z,97815.28
2024-02-13T03:29:00.391Z,97819.00
2024-02-13T03:31:27.127Z,97821.34
2024-02-13T03:33:53.921Z,97829.19
2024-02-13T03:36:21.072Z,97841.75
2024-02-13T03:38:50.211Z,97835.84
2024-02-13T03:41:17.601Z,97840.66
2024-02-13T03:43:45.873Z,97842.88
2024-02-13T03:46:12.641Z,97842.88
2024-02-13T03:48:39.553Z,97844.78
2024-02-13T03:51:07.482Z,97852.47
2024-02-13T03:53:35.920Z,97852.06
2024-02-13T03:56:05.664Z,97862.69
2024-02-13T03:58:32.588Z,97871.13
2024-02-13T04:00:59.260Z,97882.13
2024-02-13T04:03:28.156Z,97874.44
2024-02-13T04:05:57.256Z,97882.84
2024-02-13T04:08:24.392Z,97881.72
2024-02-13T04:10:51.211Z,97880.97
2024-02-13T04:13:17.798Z,97892.38
2024-02-13T04:15:44.751Z,97898.03
2024-02-13T04:18:11.890Z,97900.38
2024-02-13T04:20:41.581Z,97897.56
2024-02-13T04:23:08.566Z,97908.25
2024-02-13T04:25:36.821Z,97905.25
2024-02-13T04:28:04.344Z,97917.94
2024-02-13T04:30:32.492Z,97909.50
2024-02-13T04:32:59.428Z,97907.84
2024-02-13T04:35:26.218Z,97913.69
2024-02-13T04:37:53.098Z,97920.69
2024-02-13T04:40:20.320Z,97914.53
2024-02-13T04:42:49.708Z,97922.09
2024-02-13T04:45:16.460Z,97915.66
2024-02-13T04:47:43.225Z,97921.81
2024-02-13T04:50:12.044Z,97929.06
2024-02-13T04:52:40.606Z,97935.41
2024-02-13T04:55:08.899Z,97937.22
2024-02-13T04:57:35.609Z,97942.38
2024-02-13T05:00:07.225Z,97948.09
2024-02-13T05:02:43.969Z,97945.63
2024-02-13T05:05:29.387Z,97943.25
2024-02-13T05:07:56.197Z,97950.63
2024-02-13T05:10:22.762Z,97947.97
2024-02-13T05:12:49.528Z,97949.00
2024-02-13T05:15:18.235Z,97950.94
2024-02-13T05:17:45.485Z,97959.13
2024-02-13T05:20:13.065Z,97959.06
2024-02-13T05:22:39.915Z,97964.44
2024-02-13T05:25:08.377Z,97969.53
2024-02-13T05:27:35.737Z,97967.19
2024-02-13T05:30:06.175Z,97977.22
2024-02-13T05:32:34.139Z,97982.28
2024-02-13T05:35:01.197Z,97983.03
2024-02-13T05:37:28.149Z,97988.94
2024-02-13T05:39:57.613Z,97989.69
2024-02-13T05:42:24.635Z,97997.25
2024-02-13T05:44:51.423Z,97998.75
2024-02-13T05:47:18.158Z,98001.69
2024-02-13T05:49:47.440Z,98019.09
2024-02-13T05:52:14.302Z,98024.91
2024-02-13T05:54:43.774Z,98030.09
2024-02-13T05:57:10.821Z,98034.59
2024-02-13T05:59:37.539Z,98041.88
2024-02-13T06:02:05.091Z,98041.81
2024-02-13T06:04:31.852Z,98046.34
2024-02-13T06:06:59.182Z,98050.44
2024-02-13T06:09:26.485Z,98055.06
2024-02-13T06:11:56.603Z,98066.50
2024-02-13T06:14:23.941Z,98065.22
2024-02-13T06:16:50.733Z,98068.41
2024-02-13T06:19:17.714Z,98069.00
2024-02-13T06:21:44.589Z,98072.31
2024-02-13T06:24:11.434Z,98076.47
2024-02-13T06:26:38.862Z,98082.06
2024-02-13T06:29:08.106Z,98082.38
2024-02-13T06:31:35.304Z,98092.22
2024-02-13T06:34:02.347Z,98087.09
2024-02-13T06:36:29.660Z,98088.69
2024-02-13T06:38:57.208Z,98094.22
2024-02-13T06:41:24.306Z,98100.00
2024-02-13T06:43:51.538Z,98102.09
2024-02-13T06:46:18.394Z,98102.09
2024-02-13T06:48:47.213Z,98112.59
2024-02-13T06:51:14.179Z,98125.69
2024-02-13T06:53:41.263Z,98131.41
2024-02-13T06:56:08.377Z,98133.81
2024-02-13T06:58:35.026Z,98135.66
2024-02-13T07:01:04.040Z,98128.72
2024-02-13T07:03:32.911Z,98136.56
2024-02-13T07:06:01.000Z,98140.56
2024-02-13T07:08:28.910Z,98137.69
2024-02-13T07:10:57.444Z,98150.59
2024-02-13T07:13:24.105Z,98148.56
2024-02-13T07:15:50.873Z,98146.84
2024-02-13T07:18:18.028Z,98141.50
2024-02-13T07:20:44.686Z,98152.19
2024-02-13T07:23:11.648Z,98158.31
2024-02-13T07:25:38.483Z,98155.06
2024-02-13T07:28:05.539Z,98153.69
2024-02-13T07:30:32.576Z,98161.91
2024-02-13T07:33:00.345Z,98161.13
2024-02-13T07:35:27.684Z,98171.09
2024-02-13T07:37:54.473Z,98169.34
2024-02-13T07:40:21.330Z,98173.19
2024-02-13T07:42:48.211Z,98171.72
2024-02-13T07:45:15.385Z,98188.38
2024-02-13T07:47:43.074Z,98185.63
2024-02-13T07:50:11.178Z,98189.34
2024-02-13T07:52:38.089Z,98190.25
2024-02-13T07:55:05.920Z,98190.47
2024-02-13T07:57:34.237Z,98194.06
2024-02-13T08:00:01.148Z,98192.69
2024-02-13T08:02:29.545Z,98195.81
2024-02-13T08:04:57.373Z,98204.66
2024-02-13T08:07:29.308Z,98202.50
2024-02-13T08:09:56.558Z,98211.06
2024-02-13T08:12:23.490Z,98209.31
2024-02-13T08:14:50.708Z,98206.84
2024-02-13T08:17:17.432Z,98210.75
2024-02-13T08:19:44.291Z,98197.34
2024-02-13T08:22:11.823Z,98196.38
2024-02-13T08:24:38.794Z,98205.75
2024-02-13T08:27:07.332Z,98196.38
2024-02-13T08:29:34.678Z,98194.06
2024-02-13T08:32:04.992Z,98195.63
2024-02-13T08:34:31.918Z,98191.91
2024-02-13T08:36:58.916Z,98201.28
2024-02-13T08:39:25.667Z,98198.50
2024-02-13T08:41:52.790Z,98205.66
2024-02-13T08:44:20.579Z,98195.59
2024-02-13T08:46:47.501Z,98220.41
2024-02-13T08:49:15.151Z,98212.91
2024-02-13T08:51:42.406Z,98214.31
2024-02-13T08:54:13.944Z,98215.69
2024-02-13T08:56:41.650Z,98217.59
2024-02-13T08:59:12.803Z,98206.59
2024-02-13T09:01:39.683Z,98224.06
2024-02-13T09:04:06.821Z,98220.47
2024-02-13T09:06:35.361Z,98227.25
2024-02-13T09:09:03.246Z,98220.22
2024-02-13T09:11:32.683Z,98234.00
2024-02-13T09:14:01.024Z,98231.66
2024-02-13T09:16:28.060Z,98227.94
2024-02-13T09:18:57.305Z,98232.53
2024-02-13T09:21:25.018Z,98243.63
2024-02-13T09:23:53.721Z,98248.88
2024-02-13T09:26:21.326Z,98241.53
2024-02-13T09:28:49.124Z,98254.31
2024-02-13T09:31:17.569Z,98248.91
2024-02-13T09:33:44.909Z,98250.66
2024-02-13T09:36:15.982Z,98253.78
2024-02-13T09:38:43.614Z,98259.19
2024-02-13T09:41:12.331Z,98264.66
2024-02-13T09:43:44.423Z,98255.31
2024-02-13T09:46:16.742Z,98267.78
2024-02-13T09:48:49.195Z,98265.34
2024-02-13T09:51:19.299Z,98274.63
2024-02-13T09:53:51.381Z,98270.44
2024-02-13T09:56:19.230Z,98278.72
2024-02-13T09:58:49.313Z,98277.88
2024-02-13T10:01:16.670Z,98273.72
2024-02-13T10:03:44.681Z,98280.69
2024-02-13T10:06:12.381Z,98273.06
2024-02-13T10:08:41.469Z,98276.97
2024-02-13T10:11:10.721Z,98284.28
2024-02-13T10:13:45.235Z,98288.13
2024-02-13T10:16:25.557Z,98293.88
2024-02-13T10:18:53.855Z,98291.22
2024-02-13T10:21:28.808Z,98286.59
2024-02-13T10:24:12.851Z,98287.06
2024-02-13T10:26:39.936Z,98306.31
2024-02-13T10:29:08.370Z,98304.72
2024-02-13T10:31:40.879Z,98308.88
2024-02-13T10:34:10.969Z,98304.75
2024-02-13T10:36:40.393Z,98306.41
2024-02-13T10:39:10.519Z,98300.75
2024-02-13T10:41:41.813Z,98295.66
2024-02-13T10:44:14.779Z,98296.63
2024-02-13T10:46:43.851Z,98291.16
2024-02-13T10:49:31.412Z,98294.09
2024-02-13T10:52:00.520Z,98290.91
2024-02-13T10:54:29.825Z,98288.06
2024-02-13T10:57:00.141Z,98292.16
2024-02-13T10:59:29.771Z,98289.84
2024-02-13T11:02:01.666Z,98299.88
2024-02-13T11:04:29.050Z,98294.66
2024-02-13T11:06:56.348Z,98299.88
2024-02-13T11:09:23.582Z,98292.38
2024-02-13T11:11:53.851Z,98290.19
2024-02-13T11:14:25.121Z,98295.06
2024-02-13T11:17:00.873Z,98293.78
2024-02-13T11:19:45.416Z,98286.03
2024-02-13T11:22:17.405Z,98283.28
2024-02-13T11:25:02.059Z,98287.63
2024-02-13T11:27:30.668Z,98284.84
2024-02-13T11:30:03.318Z,98292.28
2024-02-13T11:32:39.330Z,98289.22
2024-02-13T11:35:11.555Z,98278.91
2024-02-13T11:37:38.830Z,98290.00
2024-02-13T11:40:09.958Z,98283.34
2024-02-13T11:42:36.940Z,98292.16
2024-02-13T11:45:07.273Z,98290.69
2024-02-13T11:47:34.776Z,98297.03
2024-02-13T11:50:02.070Z,98296.81
2024-02-13T11:52:29.122Z,98296.19
2024-02-13T11:54:56.084Z,98297.59
2024-02-13T11:57:26.314Z,98294.66
2024-02-13T12:00:05.436Z,98294.81
2024-02-13T12:02:34.858Z,98295.19
2024-02-13T12:05:01.704Z,98292.13
2024-02-13T12:07:29.167Z,98294.94
2024-02-13T12:09:56.458Z,98291.34
2024-02-13T12:12:25.861Z,98296.00
2024-02-13T12:14:54.115Z,98287.34
2024-02-13T12:17:22.720Z,98285.53
2024-02-13T12:19:50.320Z,98287.97
2024-02-13T12:22:18.592Z,98289.84
2024-02-13T12:24:47.693Z,98281.03
2024-02-13T12:27:16.581Z,98286.63
2024-02-13T12:29:47.177Z,98284.34
2024-02-13T12:32:18.835Z,98284.06
2024-02-13T12:34:50.773Z,98289.03
2024-02-13T12:37:20.244Z,98292.63
2024-02-13T12:39:51.168Z,98292.28
2024-02-13T12:42:19.116Z,98296.47
2024-02-13T12:44:48.626Z,98302.06
2024-02-13T12:47:18.819Z,98307.22
2024-02-13T12:49:46.817Z,98306.28
2024-02-13T12:52:19.233Z,98303.38
2024-02-13T12:54:47.547Z,98306.94
2024-02-13T12:57:15.852Z,98300.25
2024-02-13T12:59:44.929Z,98300.47
2024-02-13T13:02:15.047Z,98300.59
2024-02-13T13:04:42.290Z,98298.91
2024-02-13T13:07:09.539Z,98295.91
2024-02-13T13:09:37.572Z,98306.03
2024-02-13T13:12:07.673Z,98303.13
2024-02-13T13:14:36.027Z,98291.56
2024-02-13T13:17:03.139Z,98304.16
2024-02-13T13:19:32.055Z,98295.34
2024-02-13T13:21:59.903Z,98301.72
2024-02-13T13:24:28.594Z,98300.25
2024-02-13T13:26:56.016Z,98304.22
2024-02-13T13:29:23.519Z,98298.31
2024-02-13T13:31:52.634Z,98305.31
2024-02-13T13:34:25.309Z,98319.41
2024-02-13T13:36:54.113Z,98307.09
2024-02-13T13:39:22.471Z,98306.28
2024-02-13T13:41:51.352Z,98315.69
2024-02-13T13:44:19.598Z,98309.25
2024-02-13T13:46:47.414Z,98311.19
2024-02-13T13:49:19.003Z,98311.94
2024-02-13T13:51:46.239Z,98311.13
2024-02-13T13:54:13.177Z,98314.06
2024-02-13T13:56:42.039Z,98310.31
2024-02-13T13:59:09.094Z,98309.75
2024-02-13T14:01:37.206Z,98314.63
2024-02-13T14:04:06.161Z,98309.84
2024-02-13T14:06:33.578Z,98318.44
2024-02-13T14:09:00.606Z,98313.59
2024-02-13T14:11:27.729Z,98320.28
2024-02-13T14:13:54.883Z,98317.41
2024-02-13T14:16:21.719Z,98324.56
2024-02-13T14:18:50.025Z,98322.06
2024-02-13T14:21:17.683Z,98329.41
2024-02-13T14:23:45.023Z,98322.44
2024-02-13T14:26:11.804Z,98327.50
2024-02-13T14:28:39.413Z,98331.06
2024-02-13T14:31:07.983Z,98334.38
2024-02-13T14:33:36.695Z,98324.81
2024-02-13T14:36:04.518Z,98333.72
2024-02-13T14:38:33.263Z,98331.25
2024-02-13T14:41:02.290Z,98334.94
2024-02-13T14:43:29.195Z,98331.09
2024-02-13T14:46:00.135Z,98341.50
2024-02-13T14:48:27.326Z,98330.63
2024-02-13T14:50:54.379Z,98336.75
2024-02-13T14:53:22.580Z,98336.56
2024-02-13T14:55:49.942Z,98338.44
2024-02-13T14:58:26.050Z,98332.34
2024-02-13T15:00:58.860Z,98338.63
2024-02-13T15:03:26.184Z,98343.69
2024-02-13T15:05:54.666Z,98348.72
2024-02-13T15:08:25.848Z,98349.88
2024-02-13T15:10:53.362Z,98359.28
2024-02-13T15:13:21.684Z,98350.00
2024-02-13T15:15:52.049Z,98342.34
2024-02-13T15:18:20.177Z,98344.19
2024-02-13T15:20:49.412Z,98344.25
2024-02-13T15:23:17.033Z,98348.81
2024-02-13T15:25:44.944Z,98346.50
2024-02-13T15:28:11.998Z,98347.06
2024-02-13T15:30:39.837Z,98353.22
2024-02-13T15:33:07.916Z,98355.75
2024-02-13T15:35:43.523Z,98348.09
2024-02-13T15:38:29.762Z,98351.09
2024-02-13T15:41:23.294Z,98351.09
2024-02-13T15:44:09.718Z,98345.69
2024-02-13T15:46:55.511Z,98349.53
2024-02-13T15:49:24.235Z,98351.41
2024-02-13T15:51:55.299Z,98350.94
2024-02-13T15:54:22.521Z,98358.56
2024-02-13T15:56:50.357Z,98355.38
2024-02-13T15:59:20.169Z,98361.28
2024-02-13T16:01:47.181Z,98362.59
2024-02-13T16:04:16.851Z,98371.13
2024-02-13T16:06:44.951Z,98362.59
2024-02-13T16:09:13.275Z,98365.84
2024-02-13T16:11:40.559Z,98368.75
2024-02-13T16:14:07.621Z,98376.22
2024-02-13T16:16:34.451Z,98370.19
2024-02-13T16:19:01.425Z,98372.22
2024-02-13T16:21:28.246Z,98372.78
2024-02-13T16:23:55.344Z,98370.78
2024-02-13T16:26:24.146Z,98373.66
2024-02-13T16:28:51.002Z,98378.59
2024-02-13T16:31:22.826Z,98381.50
2024-02-13T16:33:52.522Z,98379.38
2024-02-13T16:36:22.274Z,98379.38
2024-02-13T16:38:49.410Z,98384.28
2024-02-13T16:41:17.523Z,98383.44
2024-02-13T16:43:52.085Z,98394.41
2024-02-13T16:46:21.115Z,98400.13
2024-02-13T16:48:50.571Z,98399.94
2024-02-13T16:51:22.142Z,98410.69
2024-02-13T16:53:48.951Z,98401.25
2024-02-13T16:56:18.878Z,98407.22
2024-02-13T16:58:46.639Z,98414.38
2024-02-13T17:01:16.765Z,98415.00
2024-02-13T17:03:49.258Z,98430.03
2024-02-13T17:06:16.636Z,98422.19
2024-02-13T17:08:43.818Z,98432.00
2024-02-13T17:11:10.905Z,98435.63
2024-02-13T17:13:38.295Z,98431.69
2024-02-13T17:16:08.407Z,98435.06
2024-02-13T17:18:35.395Z,98443.84
2024-02-13T17:21:02.413Z,98448.75
2024-02-13T17:23:29.599Z,98441.25
2024-02-13T17:25:57.426Z,98444.41
2024-02-13T17:28:24.187Z,98444.44
2024-02-13T17:30:52.196Z,98450.59
2024-02-13T17:33:19.398Z,98449.66
2024-02-13T17:35:46.543Z,98454.88
2024-02-13T17:38:14.041Z,98453.66
2024-02-13T17:40:40.877Z,98453.69
2024-02-13T17:43:07.749Z,98447.31
2024-02-13T17:45:34.870Z,98454.19
2024-02-13T17:48:01.734Z,98456.53
2024-02-13T17:50:28.763Z,98457.53
2024-02-13T17:52:55.789Z,98460.38
2024-02-13T17:55:24.008Z,98456.66
2024-02-13T17:57:50.777Z,98458.50
2024-02-13T18:00:24.521Z,98462.16
2024-02-13T18:02:52.897Z,98458.09
2024-02-13T18:05:20.773Z,98457.47
2024-02-13T18:07:47.840Z,98457.47
2024-02-13T18:10:15.176Z,98462.13
2024-02-13T18:12:44.632Z,98457.16
2024-02-13T18:15:11.877Z,98457.06
2024-02-13T18:17:38.832Z,98460.72
2024-02-13T18:20:06.397Z,98468.94
2024-02-13T18:22:33.191Z,98463.22
2024-02-13T18:24:59.981Z,98469.38
2024-02-13T18:27:26.616Z,98476.22
2024-02-13T18:29:54.464Z,98472.09
2024-02-13T18:32:22.040Z,98469.88
2024-02-13T18:34:49.117Z,98473.53
2024-02-13T18:37:17.995Z,98472.44
2024-02-13T18:39:47.855Z,98478.16
2024-02-13T18:42:14.742Z,98480.91
2024-02-13T18:44:41.477Z,98478.16
2024-02-13T18:47:13.539Z,98486.34
2024-02-13T18:49:40.399Z,98488.16
2024-02-13T18:52:08.409Z,98482.69
2024-02-13T18:54:36.979Z,98486.63
2024-02-13T18:57:04.355Z,98489.47
2024-02-13T18:59:31.513Z,98481.19
2024-02-13T19:02:01.429Z,98495.88
2024-02-13T19:04:28.403Z,98491.38
2024-02-13T19:06:56.082Z,98491.75
2024-02-13T19:09:23.174Z,98490.06
2024-02-13T19:11:54.186Z,98483.25
2024-02-13T19:14:24.342Z,98478.16
2024-02-13T19:16:52.364Z,98489.66
2024-02-13T19:19:19.385Z,98488.72
2024-02-13T19:21:47.210Z,98490.91
2024-02-13T19:24:14.146Z,98482.78
2024-02-13T19:26:40.794Z,98485.69
2024-02-13T19:29:07.582Z,98489.56
2024-02-13T19:31:35.982Z,98483.38
2024-02-13T19:34:03.030Z,98489.69
2024-02-13T19:36:34.249Z,98492.13
2024-02-13T19:39:01.290Z,98497.31
2024-02-13T19:41:28.547Z,98508.88
2024-02-13T19:43:58.454Z,98501.81
2024-02-13T19:46:25.190Z,98497.72
2024-02-13T19:48:53.160Z,98498.31
2024-02-13T19:51:20.102Z,98503.78
2024-02-13T19:53:46.948Z,98515.09
2024-02-13T19:56:16.157Z,98506.03
2024-02-13T19:58:43.713Z,98512.53
2024-02-13T20:01:12.509Z,98514.69
2024-02-13T20:03:40.290Z,98508.53
2024-02-13T20:06:08.317Z,98512.19
2024-02-13T20:08:37.887Z,98515.53
2024-02-13T20:11:05.171Z,98519.31
2024-02-13T20:13:37.661Z,98514.38
2024-02-13T20:16:05.710Z,98506.97
2024-02-13T20:18:36.821Z,98517.59
2024-02-13T20:21:05.113Z,98512.34
2024-02-13T20:23:36.779Z,98514.38
2024-02-13T20:26:05.427Z,98520.81
2024-02-13T20:28:34.327Z,98518.38
2024-02-13T20:31:01.428Z,98509.03
2024-02-13T20:33:32.920Z,98523.28
2024-02-13T20:36:01.330Z,98524.13
2024-02-13T20:38:29.255Z,98507.53
2024-02-13T20:40:59.046Z,98524.72
2024-02-13T20:43:28.114Z,98520.91
2024-02-13T20:45:55.032Z,98534.75
2024-02-13T20:48:22.209Z,98530.91
2024-02-13T20:50:49.899Z,98531.00
2024-02-13T20:53:18.308Z,98533.22
2024-02-13T20:55:45.681Z,98525.41
2024-02-13T20:58:13.033Z,98520.91
2024-02-13T21:00:41.377Z,98522.19
2024-02-13T21:03:08.637Z,98517.50
2024-02-13T21:05:37.675Z,98522.41
2024-02-13T21:08:05.802Z,98523.25
2024-02-13T21:10:33.303Z,98518.44
2024-02-13T21:13:00.019Z,98537.03
2024-02-13T21:15:26.765Z,98535.69
2024-02-13T21:17:53.558Z,98528.38
2024-02-13T21:20:28.233Z,98526.16
2024-02-13T21:23:14.228Z,98529.31
2024-02-13T21:25:42.958Z,98524.56
2024-02-13T21:28:09.757Z,98526.78
2024-02-13T21:30:36.757Z,98525.34
2024-02-13T21:33:04.869Z,98521.16
2024-02-13T21:35:31.945Z,98521.06
2024-02-13T21:37:58.974Z,98534.94
2024-02-13T21:40:26.795Z,98520.63
2024-02-13T21:42:53.697Z,98526.34
2024-02-13T21:45:21.679Z,98529.66
2024-02-13T21:47:48.834Z,98528.13
2024-02-13T21:50:16.141Z,98534.59
2024-02-13T21:52:43.044Z,98531.13
2024-02-13T21:55:10.627Z,98529.91
2024-02-13T21:57:37.479Z,98521.06
2024-02-13T22:00:07.817Z,98523.19
2024-02-13T22:02:35.005Z,98523.72
2024-02-13T22:05:01.955Z,98532.72
2024-02-13T22:07:28.882Z,98530.38
2024-02-13T22:09:57.543Z,98538.91
2024-02-13T22:12:24.714Z,98534.72
2024-02-13T22:14:51.590Z,98531.84
2024-02-13T22:17:18.456Z,98524.03
2024-02-13T22:19:45.249Z,98530.84
2024-02-13T22:22:12.517Z,98532.28
2024-02-13T22:24:39.448Z,98522.00
2024-02-13T22:27:06.901Z,98532.19
2024-02-13T22:29:34.864Z,98531.94
2024-02-13T22:32:02.094Z,98546.97
2024-02-13T22:34:29.292Z,98541.53
2024-02-13T22:36:56.159Z,98533.56
2024-02-13T22:39:22.902Z,98542.81
2024-02-13T22:41:49.818Z,98545.22
2024-02-13T22:44:19.731Z,98545.72
2024-02-13T22:46:46.598Z,98549.78
2024-02-13T22:49:13.296Z,98547.31
2024-02-13T22:51:43.282Z,98548.59
2024-02-13T22:54:11.710Z,98549.44
2024-02-13T22:56:38.353Z,98552.94
2024-02-13T22:59:05.166Z,98553.28
2024-02-13T23:01:35.139Z,98549.19
2024-02-13T23:04:05.727Z,98549.25
2024-02-13T23:06:33.156Z,98547.31
2024-02-13T23:09:12.259Z,98542.22
2024-02-13T23:11:39.039Z,98549.06
2024-02-13T23:14:05.906Z,98543.66
2024-02-13T23:16:33.078Z,98543.38
2024-02-13T23:19:00.329Z,98548.91
2024-02-13T23:21:27.350Z,98543.50
2024-02-13T23:23:54.190Z,98540.75
2024-02-13T23:26:20.998Z,98546.19
2024-02-13T23:28:52.771Z,98540.72
2024-02-13T23:31:25.785Z,98540.69
2024-02-13T23:33:54.071Z,98539.06
2024-02-13T23:36:21.016Z,98545.53
2024-02-13T23:38:47.980Z,98544.06
2024-02-13T23:41:15.300Z,98538.75
2024-02-13T23:43:42.259Z,98539.50
2024-02-13T23:46:09.141Z,98537.47
2024-02-13T23:48:37.988Z,98537.47
2024-02-13T23:51:05.679Z,98545.13
2024-02-13T23:53:32.667Z,98537.03
2024-02-13T23:55:59.319Z,98541.09
2024-02-13T23:58:26.089Z,98550.63
